sensor_id;sensor_type;location;lat;lon;timestamp;pressure;altitude;pressure_sealevel;temperature;humidity
20027;BME280;10174;42.688;23.344;2023-02-28T00:02:19;95743.19;;;6.11;99.01
20027;BME280;10174;42.688;23.344;2023-02-28T00:04:44;95791.06;;;6.24;98.38
20027;BME280;10174;42.688;23.344;2023-02-28T00:07:11;95692.06;;;5.59;98.51
20027;BME280;10174;42.688;23.344;2023-02-28T00:09:36;95756.25;;;6.01;98.57
20027;BME280;10174;42.688;23.344;2023-02-28T00:12:02;95768.81;;;6.12;98.40
20027;BME280;10174;42.688;23.344;2023-02-28T00:14:35;95755.78;;;6.04;98.61
20027;BME280;10174;42.688;23.344;2023-02-28T00:17:00;95771.66;;;6.17;98.97
20027;BME280;10174;42.688;23.344;2023-02-28T00:19:26;95751.78;;;5.95;98.73
20027;BME280;10174;42.688;23.344;2023-02-28T00:21:51;95774.78;;;6.14;98.99
20027;BME280;10174;42.688;23.344;2023-02-28T00:24:16;95771.81;;;6.04;99.09
20027;BME280;10174;42.688;23.344;2023-02-28T00:26:42;95715.69;;;5.74;99.00
20027;BME280;10174;42.688;23.344;2023-02-28T00:29:07;95754.38;;;6.01;98.07
20027;BME280;10174;42.688;23.344;2023-02-28T00:31:33;95795.97;;;6.28;98.03
20027;BME280;10174;42.688;23.344;2023-02-28T00:33:58;95777.28;;;6.09;98.61
20027;BME280;10174;42.688;23.344;2023-02-28T00:36:23;95699.84;;;5.60;98.21
20027;BME280;10174;42.688;23.344;2023-02-28T00:38:49;95790.69;;;6.21;98.71
20027;BME280;10174;42.688;23.344;2023-02-28T00:41:14;95802.16;;;6.21;98.17
20027;BME280;10174;42.688;23.344;2023-02-28T00:43:40;95772.78;;;6.10;98.27
20027;BME280;10174;42.688;23.344;2023-02-28T00:46:05;95774.78;;;6.14;98.20
20027;BME280;10174;42.688;23.344;2023-02-28T00:48:31;95676.16;;;5.52;97.76
20027;BME280;10174;42.688;23.344;2023-02-28T00:50:57;95748.88;;;5.78;98.22
20027;BME280;10174;42.688;23.344;2023-02-28T00:53:22;95770.13;;;5.84;98.41
20027;BME280;10174;42.688;23.344;2023-02-28T00:55:49;95761.19;;;5.79;97.86
20027;BME280;10174;42.688;23.344;2023-02-28T00:58:14;95768.25;;;5.66;97.89
20027;BME280;10174;42.688;23.344;2023-02-28T01:00:40;95748.84;;;5.41;98.30
20027;BME280;10174;42.688;23.344;2023-02-28T01:03:05;95757.34;;;5.49;98.17
20027;BME280;10174;42.688;23.344;2023-02-28T01:05:31;95762.84;;;5.36;98.65
20027;BME280;10174;42.688;23.344;2023-02-28T01:07:56;95744.06;;;5.24;99.26
20027;BME280;10174;42.688;23.344;2023-02-28T01:10:22;95794.19;;;5.59;98.84
20027;BME280;10174;42.688;23.344;2023-02-28T01:12:47;95766.63;;;5.47;98.72
20027;BME280;10174;42.688;23.344;2023-02-28T01:15:12;95735.00;;;5.32;98.59
20027;BME280;10174;42.688;23.344;2023-02-28T01:17:38;95745.34;;;5.40;98.23
20027;BME280;10174;42.688;23.344;2023-02-28T01:20:04;95782.00;;;5.45;98.22
20027;BME280;10174;42.688;23.344;2023-02-28T01:22:29;95798.25;;;5.62;98.76
20027;BME280;10174;42.688;23.344;2023-02-28T01:24:55;95757.50;;;5.36;98.23
20027;BME280;10174;42.688;23.344;2023-02-28T01:27:20;95761.56;;;5.39;97.73
20027;BME280;10174;42.688;23.344;2023-02-28T01:29:45;95762.84;;;5.36;99.02
20027;BME280;10174;42.688;23.344;2023-02-28T01:32:11;95784.44;;;5.46;98.70
20027;BME280;10174;42.688;23.344;2023-02-28T01:34:36;95759.41;;;5.29;98.00
20027;BME280;10174;42.688;23.344;2023-02-28T01:37:02;95764.34;;;5.25;97.92
20027;BME280;10174;42.688;23.344;2023-02-28T01:39:28;95768.59;;;5.33;98.03
20027;BME280;10174;42.688;23.344;2023-02-28T01:41:54;95760.16;;;5.36;97.99
20027;BME280;10174;42.688;23.344;2023-02-28T01:47:26;95788.28;;;5.32;98.21
20027;BME280;10174;42.688;23.344;2023-02-28T01:49:52;95759.72;;;5.14;98.16
20027;BME280;10174;42.688;23.344;2023-02-28T01:52:18;95740.22;;;4.95;98.00
20027;BME280;10174;42.688;23.344;2023-02-28T01:54:55;95765.88;;;5.14;98.40
20027;BME280;10174;42.688;23.344;2023-02-28T01:57:36;95778.06;;;5.29;97.54
20027;BME280;10174;42.688;23.344;2023-02-28T02:00:12;95696.81;;;4.69;97.20
20027;BME280;10174;42.688;23.344;2023-02-28T02:02:43;95793.16;;;5.35;97.48
20027;BME280;10174;42.688;23.344;2023-02-28T02:05:22;95710.44;;;4.79;97.40
20027;BME280;10174;42.688;23.344;2023-02-28T02:07:54;95777.78;;;5.12;98.09
20027;BME280;10174;42.688;23.344;2023-02-28T02:10:32;95799.81;;;5.26;97.31
20027;BME280;10174;42.688;23.344;2023-02-28T02:13:05;95792.75;;;5.38;97.12
20027;BME280;10174;42.688;23.344;2023-02-28T02:15:57;95774.84;;;5.20;96.24
20027;BME280;10174;42.688;23.344;2023-02-28T02:18:37;95783.97;;;5.31;96.37
20027;BME280;10174;42.688;23.344;2023-02-28T02:29:57;95782.63;;;5.22;96.38
20027;BME280;10174;42.688;23.344;2023-02-28T02:32:58;95779.38;;;5.20;96.62
20027;BME280;10174;42.688;23.344;2023-02-28T02:38:11;95779.84;;;5.10;97.28
20027;BME280;10174;42.688;23.344;2023-02-28T02:40:50;95787.94;;;5.22;97.67
20027;BME280;10174;42.688;23.344;2023-02-28T02:43:29;95767.13;;;5.12;97.98
20027;BME280;10174;42.688;23.344;2023-02-28T02:46:07;95697.22;;;4.66;97.50
20027;BME280;10174;42.688;23.344;2023-02-28T02:48:37;95791.97;;;5.31;97.25
20027;BME280;10174;42.688;23.344;2023-02-28T02:51:07;95804.53;;;5.49;97.01
20027;BME280;10174;42.688;23.344;2023-02-28T02:53:42;95790.47;;;5.60;96.45
20027;BME280;10174;42.688;23.344;2023-02-28T02:56:09;95800.44;;;5.71;96.68
20027;BME280;10174;42.688;23.344;2023-02-28T02:58:40;95795.75;;;5.67;96.88
20027;BME280;10174;42.688;23.344;2023-02-28T03:01:08;95808.22;;;5.73;96.72
20027;BME280;10174;42.688;23.344;2023-02-28T03:03:35;95788.91;;;5.52;96.99
20027;BME280;10174;42.688;23.344;2023-02-28T03:06:02;95763.44;;;5.57;96.67
20027;BME280;10174;42.688;23.344;2023-02-28T03:08:30;95821.41;;;5.86;96.09
20027;BME280;10174;42.688;23.344;2023-02-28T03:11:00;95794.44;;;5.76;95.65
20027;BME280;10174;42.688;23.344;2023-02-28T03:21:43;95827.91;;;5.91;95.92
20027;BME280;10174;42.688;23.344;2023-02-28T03:24:30;95842.22;;;5.96;95.87
20027;BME280;10174;42.688;23.344;2023-02-28T03:27:07;95715.63;;;4.99;95.59
20027;BME280;10174;42.688;23.344;2023-02-28T03:29:47;95847.75;;;5.76;96.60
20027;BME280;10174;42.688;23.344;2023-02-28T03:32:38;95829.88;;;5.58;97.11
20027;BME280;10174;42.688;23.344;2023-02-28T03:35:14;95816.88;;;5.43;97.32
20027;BME280;10174;42.688;23.344;2023-02-28T03:37:48;95848.59;;;5.51;98.31
20027;BME280;10174;42.688;23.344;2023-02-28T03:40:27;95843.16;;;5.40;98.72
20027;BME280;10174;42.688;23.344;2023-02-28T03:42:59;95821.91;;;5.33;98.47
20027;BME280;10174;42.688;23.344;2023-02-28T03:45:33;95851.78;;;5.35;98.45
20027;BME280;10174;42.688;23.344;2023-02-28T03:48:19;95847.34;;;5.29;99.13
20027;BME280;10174;42.688;23.344;2023-02-28T03:50:54;95751.06;;;4.68;98.33
20027;BME280;10174;42.688;23.344;2023-02-28T03:53:30;95853.81;;;5.40;98.88
20027;BME280;10174;42.688;23.344;2023-02-28T03:56:19;95827.03;;;5.28;98.80
20027;BME280;10174;42.688;23.344;2023-02-28T03:58:51;95854.66;;;5.59;98.49
20027;BME280;10174;42.688;23.344;2023-02-28T04:01:26;95857.34;;;5.59;98.10
20027;BME280;10174;42.688;23.344;2023-02-28T04:03:53;95856.63;;;5.45;98.53
20027;BME280;10174;42.688;23.344;2023-02-28T04:06:20;95865.94;;;5.61;98.62
20027;BME280;10174;42.688;23.344;2023-02-28T04:08:46;95813.69;;;5.34;98.98
20027;BME280;10174;42.688;23.344;2023-02-28T04:11:36;95840.59;;;5.51;99.12
20027;BME280;10174;42.688;23.344;2023-02-28T04:14:02;95854.41;;;5.67;98.67
20027;BME280;10174;42.688;23.344;2023-02-28T04:16:29;95859.22;;;5.77;98.45
20027;BME280;10174;42.688;23.344;2023-02-28T04:18:55;95847.00;;;5.69;98.16
20027;BME280;10174;42.688;23.344;2023-02-28T04:21:29;95780.13;;;5.27;98.12
20027;BME280;10174;42.688;23.344;2023-02-28T04:23:55;95738.59;;;4.94;98.49
20027;BME280;10174;42.688;23.344;2023-02-28T04:26:20;95822.03;;;5.38;98.84
20027;BME280;10174;42.688;23.344;2023-02-28T04:28:45;95783.41;;;5.22;98.55
20027;BME280;10174;42.688;23.344;2023-02-28T04:31:11;95811.97;;;5.40;98.48
20027;BME280;10174;42.688;23.344;2023-02-28T04:33:36;95730.31;;;4.77;98.34
20027;BME280;10174;42.688;23.344;2023-02-28T04:36:07;95834.50;;;5.44;98.93
20027;BME280;10174;42.688;23.344;2023-02-28T04:38:36;95862.56;;;5.47;99.19
20027;BME280;10174;42.688;23.344;2023-02-28T04:41:03;95848.53;;;5.33;99.40
20027;BME280;10174;42.688;23.344;2023-02-28T04:43:29;95768.09;;;4.92;99.46
20027;BME280;10174;42.688;23.344;2023-02-28T04:45:56;95870.84;;;5.64;99.83
20027;BME280;10174;42.688;23.344;2023-02-28T04:48:23;95877.09;;;5.76;99.24
20027;BME280;10174;42.688;23.344;2023-02-28T04:50:50;95798.59;;;5.22;97.65
20027;BME280;10174;42.688;23.344;2023-02-28T04:53:15;95846.59;;;5.47;97.63
20027;BME280;10174;42.688;23.344;2023-02-28T04:55:41;95841.41;;;5.52;98.17
20027;BME280;10174;42.688;23.344;2023-02-28T04:58:06;95824.81;;;5.25;97.33
20027;BME280;10174;42.688;23.344;2023-02-28T05:00:31;95872.69;;;5.38;98.20
20027;BME280;10174;42.688;23.344;2023-02-28T05:02:57;95846.63;;;5.08;98.01
20027;BME280;10174;42.688;23.344;2023-02-28T05:05:22;95825.91;;;5.17;97.96
20027;BME280;10174;42.688;23.344;2023-02-28T05:07:47;95760.50;;;4.64;97.92
20027;BME280;10174;42.688;23.344;2023-02-28T05:10:13;95883.69;;;5.48;97.84
20027;BME280;10174;42.688;23.344;2023-02-28T05:12:38;95873.44;;;5.45;97.85
20027;BME280;10174;42.688;23.344;2023-02-28T05:15:04;95856.41;;;5.46;96.95
20027;BME280;10174;42.688;23.344;2023-02-28T05:17:30;95860.28;;;5.50;97.75
20027;BME280;10174;42.688;23.344;2023-02-28T05:19:56;95882.69;;;5.68;96.24
20027;BME280;10174;42.688;23.344;2023-02-28T05:22:22;95884.41;;;5.56;97.49
20027;BME280;10174;42.688;23.344;2023-02-28T05:24:47;95899.50;;;5.68;96.83
20027;BME280;10174;42.688;23.344;2023-02-28T05:27:13;95885.56;;;5.41;97.85
20027;BME280;10174;42.688;23.344;2023-02-28T05:29:38;95902.50;;;5.53;98.03
20027;BME280;10174;42.688;23.344;2023-02-28T05:32:11;95894.66;;;5.59;97.52
20027;BME280;10174;42.688;23.344;2023-02-28T05:34:38;95914.03;;;5.47;97.85
20027;BME280;10174;42.688;23.344;2023-02-28T05:37:05;95906.31;;;5.39;97.88
20027;BME280;10174;42.688;23.344;2023-02-28T05:39:30;95885.06;;;5.26;97.94
20027;BME280;10174;42.688;23.344;2023-02-28T05:41:56;95879.13;;;5.24;97.81
20027;BME280;10174;42.688;23.344;2023-02-28T05:44:21;95780.59;;;4.60;97.61
20027;BME280;10174;42.688;23.344;2023-02-28T05:46:46;95879.31;;;5.29;98.04
20027;BME280;10174;42.688;23.344;2023-02-28T05:49:12;95909.72;;;5.46;97.77
20027;BME280;10174;42.688;23.344;2023-02-28T05:51:37;95840.16;;;4.97;98.14
20027;BME280;10174;42.688;23.344;2023-02-28T05:54:05;95915.31;;;5.38;98.45
20027;BME280;10174;42.688;23.344;2023-02-28T05:56:31;95811.69;;;4.66;97.98
20027;BME280;10174;42.688;23.344;2023-02-28T05:58:57;95861.75;;;5.14;98.73
20027;BME280;10174;42.688;23.344;2023-02-28T06:01:23;95932.66;;;5.79;98.41
20027;BME280;10174;42.688;23.344;2023-02-28T06:03:49;95917.19;;;5.63;97.13
20027;BME280;10174;42.688;23.344;2023-02-28T06:06:15;95871.81;;;5.44;97.15
20027;BME280;10174;42.688;23.344;2023-02-28T06:08:40;95900.47;;;5.49;97.36
20027;BME280;10174;42.688;23.344;2023-02-28T06:11:05;95898.75;;;5.61;96.66
20027;BME280;10174;42.688;23.344;2023-02-28T06:13:31;95921.69;;;5.87;96.17
20027;BME280;10174;42.688;23.344;2023-02-28T06:16:00;95914.88;;;5.66;96.76
20027;BME280;10174;42.688;23.344;2023-02-28T06:18:26;95904.66;;;5.63;96.64
20027;BME280;10174;42.688;23.344;2023-02-28T06:20:54;95904.44;;;5.65;96.76
20027;BME280;10174;42.688;23.344;2023-02-28T06:23:21;95933.31;;;6.00;96.35
20027;BME280;10174;42.688;23.344;2023-02-28T06:25:47;95832.06;;;5.43;94.51
20027;BME280;10174;42.688;23.344;2023-02-28T06:28:12;95785.56;;;5.13;94.29
20027;BME280;10174;42.688;23.344;2023-02-28T06:30:38;95927.53;;;6.03;95.01
20027;BME280;10174;42.688;23.344;2023-02-28T06:33:04;95889.09;;;5.85;94.98
20027;BME280;10174;42.688;23.344;2023-02-28T06:35:29;95899.00;;;5.78;94.76
20027;BME280;10174;42.688;23.344;2023-02-28T06:37:55;95821.56;;;5.23;94.65
20027;BME280;10174;42.688;23.344;2023-02-28T06:40:20;95947.09;;;5.97;95.03
20027;BME280;10174;42.688;23.344;2023-02-28T06:42:46;95946.56;;;5.81;95.23
20027;BME280;10174;42.688;23.344;2023-02-28T06:45:11;95946.53;;;5.88;95.08
20027;BME280;10174;42.688;23.344;2023-02-28T06:47:38;95926.09;;;5.75;95.37
20027;BME280;10174;42.688;23.344;2023-02-28T06:50:05;95923.41;;;5.82;94.50
20027;BME280;10174;42.688;23.344;2023-02-28T06:52:31;95893.25;;;5.81;94.28
20027;BME280;10174;42.688;23.344;2023-02-28T06:54:56;95935.72;;;6.08;93.70
20027;BME280;10174;42.688;23.344;2023-02-28T06:57:29;95883.41;;;5.82;93.00
20027;BME280;10174;42.688;23.344;2023-02-28T06:59:59;95917.13;;;5.95;92.50
20027;BME280;10174;42.688;23.344;2023-02-28T07:02:25;95950.97;;;6.01;92.87
20027;BME280;10174;42.688;23.344;2023-02-28T07:04:51;95894.22;;;5.62;93.46
20027;BME280;10174;42.688;23.344;2023-02-28T07:07:16;95953.97;;;6.11;93.87
20027;BME280;10174;42.688;23.344;2023-02-28T07:09:41;95916.59;;;5.86;93.56
20027;BME280;10174;42.688;23.344;2023-02-28T07:12:07;95938.09;;;6.16;93.26
20027;BME280;10174;42.688;23.344;2023-02-28T07:14:32;95943.44;;;6.16;93.04
20027;BME280;10174;42.688;23.344;2023-02-28T07:16:58;95943.44;;;6.16;93.03
20027;BME280;10174;42.688;23.344;2023-02-28T07:19:23;95888.22;;;5.92;93.32
20027;BME280;10174;42.688;23.344;2023-02-28T07:21:48;95950.59;;;6.41;93.27
20027;BME280;10174;42.688;23.344;2023-02-28T07:24:14;95917.13;;;6.20;92.84
20027;BME280;10174;42.688;23.344;2023-02-28T07:26:41;95867.88;;;5.72;92.94
20027;BME280;10174;42.688;23.344;2023-02-28T07:29:06;95953.09;;;6.36;93.25
20027;BME280;10174;42.688;23.344;2023-02-28T07:31:32;95930.69;;;6.18;93.39
20027;BME280;10174;42.688;23.344;2023-02-28T07:33:57;95960.31;;;6.54;92.59
20027;BME280;10174;42.688;23.344;2023-02-28T07:36:24;95915.16;;;6.34;92.56
20027;BME280;10174;42.688;23.344;2023-02-28T07:38:50;95935.03;;;6.75;92.29
20027;BME280;10174;42.688;23.344;2023-02-28T07:41:16;95910.09;;;6.26;91.49
20027;BME280;10174;42.688;23.344;2023-02-28T07:43:42;95957.72;;;6.66;92.04
20027;BME280;10174;42.688;23.344;2023-02-28T07:46:10;95959.94;;;6.50;92.26
20027;BME280;10174;42.688;23.344;2023-02-28T07:48:36;95952.66;;;6.39;92.75
20027;BME280;10174;42.688;23.344;2023-02-28T07:51:02;95925.97;;;6.39;92.77
20027;BME280;10174;42.688;23.344;2023-02-28T07:53:29;95922.88;;;6.60;91.98
20027;BME280;10174;42.688;23.344;2023-02-28T07:55:56;95947.66;;;6.68;92.37
20027;BME280;10174;42.688;23.344;2023-02-28T07:58:23;95935.25;;;6.55;91.68
20027;BME280;10174;42.688;23.344;2023-02-28T08:00:49;95955.34;;;6.76;92.15
20027;BME280;10174;42.688;23.344;2023-02-28T08:03:14;95940.00;;;6.71;91.94
20027;BME280;10174;42.688;23.344;2023-02-28T08:05:40;95857.38;;;6.39;91.00
20027;BME280;10174;42.688;23.344;2023-02-28T08:08:06;95928.88;;;6.74;91.25
20027;BME280;10174;42.688;23.344;2023-02-28T08:10:32;95836.56;;;6.11;91.59
20027;BME280;10174;42.688;23.344;2023-02-28T08:12:57;95935.44;;;7.09;91.25
20027;BME280;10174;42.688;23.344;2023-02-28T08:15:23;95904.97;;;7.10;90.00
20027;BME280;10174;42.688;23.344;2023-02-28T08:17:48;95930.19;;;7.32;89.58
20027;BME280;10174;42.688;23.344;2023-02-28T08:20:13;95935.16;;;7.59;89.15
20027;BME280;10174;42.688;23.344;2023-02-28T08:22:39;95936.53;;;8.28;88.05
20027;BME280;10174;42.688;23.344;2023-02-28T08:25:05;95942.56;;;8.35;86.39
20027;BME280;10174;42.688;23.344;2023-02-28T08:27:32;95888.44;;;8.33;85.35
20027;BME280;10174;42.688;23.344;2023-02-28T08:29:57;95881.00;;;8.23;84.90
20027;BME280;10174;42.688;23.344;2023-02-28T08:32:23;95925.00;;;8.51;85.11
20027;BME280;10174;42.688;23.344;2023-02-28T08:34:48;95914.50;;;8.14;86.28
20027;BME280;10174;42.688;23.344;2023-02-28T08:37:14;95933.47;;;8.71;86.16
20027;BME280;10174;42.688;23.344;2023-02-28T08:39:39;95806.50;;;8.44;84.27
20027;BME280;10174;42.688;23.344;2023-02-28T08:42:04;95932.13;;;9.26;82.93
20027;BME280;10174;42.688;23.344;2023-02-28T08:44:30;95948.50;;;9.42;84.22
20027;BME280;10174;42.688;23.344;2023-02-28T08:46:55;95918.72;;;9.26;84.42
20027;BME280;10174;42.688;23.344;2023-02-28T08:49:21;95947.84;;;9.63;83.61
20027;BME280;10174;42.688;23.344;2023-02-28T08:51:46;95943.25;;;9.47;85.03
20027;BME280;10174;42.688;23.344;2023-02-28T08:54:12;95916.94;;;9.61;84.43
20027;BME280;10174;42.688;23.344;2023-02-28T08:56:38;95944.38;;;10.14;83.32
20027;BME280;10174;42.688;23.344;2023-02-28T08:59:04;95931.66;;;10.60;82.42
20027;BME280;10174;42.688;23.344;2023-02-28T09:01:29;95863.59;;;10.55;81.25
20027;BME280;10174;42.688;23.344;2023-02-28T09:03:57;95937.44;;;11.13;79.98
20027;BME280;10174;42.688;23.344;2023-02-28T09:06:25;95929.13;;;11.42;79.08
20027;BME280;10174;42.688;23.344;2023-02-28T09:08:51;95941.13;;;11.84;77.93
20027;BME280;10174;42.688;23.344;2023-02-28T09:11:17;95936.94;;;11.71;76.29
20027;BME280;10174;42.688;23.344;2023-02-28T09:13:45;95922.56;;;11.87;76.48
20027;BME280;10174;42.688;23.344;2023-02-28T09:16:13;95937.03;;;12.08;75.46
20027;BME280;10174;42.688;23.344;2023-02-28T09:18:39;95924.75;;;11.90;76.09
20027;BME280;10174;42.688;23.344;2023-02-28T09:21:07;95934.13;;;12.15;74.86
20027;BME280;10174;42.688;23.344;2023-02-28T09:23:33;95935.38;;;12.40;74.11
20027;BME280;10174;42.688;23.344;2023-02-28T09:25:59;95937.69;;;12.26;74.33
20027;BME280;10174;42.688;23.344;2023-02-28T09:28:24;95948.94;;;11.85;74.76
20027;BME280;10174;42.688;23.344;2023-02-28T09:30:52;95868.50;;;11.62;74.56
20027;BME280;10174;42.688;23.344;2023-02-28T09:33:18;95849.41;;;11.63;74.16
20027;BME280;10174;42.688;23.344;2023-02-28T09:35:46;95928.31;;;12.28;73.72
20027;BME280;10174;42.688;23.344;2023-02-28T09:38:11;95922.84;;;12.61;72.19
20027;BME280;10174;42.688;23.344;2023-02-28T09:40:54;95926.00;;;13.00;70.50
20027;BME280;10174;42.688;23.344;2023-02-28T09:43:23;95933.94;;;13.28;69.32
20027;BME280;10174;42.688;23.344;2023-02-28T09:46:00;95911.09;;;13.46;68.02
20027;BME280;10174;42.688;23.344;2023-02-28T09:48:35;95853.72;;;12.92;68.71
20027;BME280;10174;42.688;23.344;2023-02-28T09:51:15;95905.88;;;13.29;68.72
20027;BME280;10174;42.688;23.344;2023-02-28T09:53:48;95914.75;;;13.19;69.60
20027;BME280;10174;42.688;23.344;2023-02-28T09:56:33;95910.78;;;12.74;70.58
20027;BME280;10174;42.688;23.344;2023-02-28T10:06:55;95913.78;;;13.51;67.24
20027;BME280;10174;42.688;23.344;2023-02-28T10:09:30;95904.94;;;14.17;65.19
20027;BME280;10174;42.688;23.344;2023-02-28T10:12:01;95902.75;;;14.19;64.00
20027;BME280;10174;42.688;23.344;2023-02-28T10:14:29;95891.66;;;14.47;62.93
20027;BME280;10174;42.688;23.344;2023-02-28T10:17:21;95909.94;;;14.91;62.76
20027;BME280;10174;42.688;23.344;2023-02-28T10:20:17;95868.59;;;14.80;61.23
20027;BME280;10174;42.688;23.344;2023-02-28T10:22:57;95906.09;;;15.02;61.23
20027;BME280;10174;42.688;23.344;2023-02-28T10:25:26;95893.69;;;14.96;60.87
20027;BME280;10174;42.688;23.344;2023-02-28T10:28:12;95897.53;;;14.85;62.08
20027;BME280;10174;42.688;23.344;2023-02-28T10:30:41;95874.25;;;14.84;60.94
20027;BME280;10174;42.688;23.344;2023-02-28T10:35:47;95894.03;;;15.34;60.51
20027;BME280;10174;42.688;23.344;2023-02-28T10:38:20;95850.00;;;15.23;59.01
20027;BME280;10174;42.688;23.344;2023-02-28T10:40:46;95840.53;;;15.65;57.67
20027;BME280;10174;42.688;23.344;2023-02-28T10:45:53;95845.09;;;16.34;55.80
20027;BME280;10174;42.688;23.344;2023-02-28T10:56:06;95859.59;;;18.72;48.74
20027;BME280;10174;42.688;23.344;2023-02-28T11:01:41;95834.00;;;18.31;48.92
20027;BME280;10174;42.688;23.344;2023-02-28T11:06:48;95845.75;;;19.37;46.24
20027;BME280;10174;42.688;23.344;2023-02-28T11:11:59;95835.06;;;17.45;50.62
20027;BME280;10174;42.688;23.344;2023-02-28T11:14:27;95834.53;;;18.14;49.49
20027;BME280;10174;42.688;23.344;2023-02-28T11:16:54;95841.97;;;17.56;52.09
20027;BME280;10174;42.688;23.344;2023-02-28T11:19:28;95833.78;;;18.27;49.89
20027;BME280;10174;42.688;23.344;2023-02-28T11:21:58;95817.50;;;19.11;46.92
20027;BME280;10174;42.688;23.344;2023-02-28T11:24:37;95786.41;;;16.91;52.33
20027;BME280;10174;42.688;23.344;2023-02-28T11:27:06;95807.06;;;17.31;51.29
20027;BME280;10174;42.688;23.344;2023-02-28T11:29:33;95796.91;;;17.17;50.92
20027;BME280;10174;42.688;23.344;2023-02-28T11:32:13;95825.53;;;16.85;52.35
20027;BME280;10174;42.688;23.344;2023-02-28T11:34:41;95823.41;;;17.44;51.35
20027;BME280;10174;42.688;23.344;2023-02-28T11:37:17;95816.34;;;17.05;51.40
20027;BME280;10174;42.688;23.344;2023-02-28T11:39:44;95824.84;;;16.50;53.56
20027;BME280;10174;42.688;23.344;2023-02-28T11:42:31;95820.22;;;16.99;50.98
20027;BME280;10174;42.688;23.344;2023-02-28T11:47:41;95797.56;;;16.17;54.34
20027;BME280;10174;42.688;23.344;2023-02-28T11:50:16;95822.94;;;16.27;54.26
20027;BME280;10174;42.688;23.344;2023-02-28T11:52:53;95800.88;;;17.44;52.19
20027;BME280;10174;42.688;23.344;2023-02-28T11:55:38;95814.84;;;18.78;47.92
20027;BME280;10174;42.688;23.344;2023-02-28T12:04:11;95809.28;;;18.27;47.56
20027;BME280;10174;42.688;23.344;2023-02-28T12:06:58;95809.47;;;17.84;49.74
20027;BME280;10174;42.688;23.344;2023-02-28T12:09:40;95736.72;;;17.81;47.81
20027;BME280;10174;42.688;23.344;2023-02-28T12:15:02;95805.31;;;18.52;46.96
20027;BME280;10174;42.688;23.344;2023-02-28T12:28:15;95786.59;;;16.28;52.66
20027;BME280;10174;42.688;23.344;2023-02-28T12:30:53;95802.97;;;16.66;52.81
20027;BME280;10174;42.688;23.344;2023-02-28T12:33:22;95732.41;;;15.69;54.33
20027;BME280;10174;42.688;23.344;2023-02-28T12:38:27;95763.00;;;15.40;55.59
20027;BME280;10174;42.688;23.344;2023-02-28T12:41:02;95772.59;;;15.57;54.73
20027;BME280;10174;42.688;23.344;2023-02-28T12:43:34;95774.59;;;15.06;56.29
20027;BME280;10174;42.688;23.344;2023-02-28T12:46:17;95713.56;;;14.35;57.70
20027;BME280;10174;42.688;23.344;2023-02-28T12:48:48;95797.75;;;14.73;58.06
20027;BME280;10174;42.688;23.344;2023-02-28T12:51:17;95775.72;;;14.40;59.00
20027;BME280;10174;42.688;23.344;2023-02-28T12:53:57;95690.16;;;14.10;57.89
20027;BME280;10174;42.688;23.344;2023-02-28T12:59:11;95794.81;;;14.69;57.31
20027;BME280;10174;42.688;23.344;2023-02-28T13:01:53;95775.97;;;14.43;58.02
20027;BME280;10174;42.688;23.344;2023-02-28T13:04:47;95788.94;;;14.41;59.14
20027;BME280;10174;42.688;23.344;2023-02-28T13:10:06;95760.03;;;14.32;58.93
20027;BME280;10174;42.688;23.344;2023-02-28T13:12:33;95778.69;;;14.33;58.77
20027;BME280;10174;42.688;23.344;2023-02-28T13:15:17;95790.38;;;14.13;60.14
20027;BME280;10174;42.688;23.344;2023-02-28T13:17:49;95634.22;;;12.83;60.90
20027;BME280;10174;42.688;23.344;2023-02-28T13:20:33;95752.88;;;13.76;61.58
20027;BME280;10174;42.688;23.344;2023-02-28T13:22:59;95780.16;;;13.74;61.84
20027;BME280;10174;42.688;23.344;2023-02-28T13:27:58;95763.44;;;13.82;61.14
20027;BME280;10174;42.688;23.344;2023-02-28T13:33:33;95766.94;;;13.57;62.43
20027;BME280;10174;42.688;23.344;2023-02-28T13:44:05;95739.44;;;13.50;61.24
20027;BME280;10174;42.688;23.344;2023-02-28T13:46:33;95735.09;;;13.54;61.18
20027;BME280;10174;42.688;23.344;2023-02-28T13:49:27;95784.69;;;14.15;59.56
20027;BME280;10174;42.688;23.344;2023-02-28T14:03:27;95763.41;;;13.15;64.54
20027;BME280;10174;42.688;23.344;2023-02-28T14:06:16;95774.72;;;13.07;63.06
20027;BME280;10174;42.688;23.344;2023-02-28T14:09:06;95760.44;;;13.12;62.86
20027;BME280;10174;42.688;23.344;2023-02-28T14:11:44;95751.78;;;13.05;62.94
20027;BME280;10174;42.688;23.344;2023-02-28T14:17:01;95773.31;;;12.74;65.37
20027;BME280;10174;42.688;23.344;2023-02-28T14:19:30;95779.28;;;12.91;64.55
20027;BME280;10174;42.688;23.344;2023-02-28T14:30:37;95779.19;;;12.55;66.32
20027;BME280;10174;42.688;23.344;2023-02-28T14:33:31;95778.31;;;12.44;66.81
20027;BME280;10174;42.688;23.344;2023-02-28T14:36:07;95779.09;;;12.40;67.35
20027;BME280;10174;42.688;23.344;2023-02-28T14:38:43;95781.19;;;12.27;68.12
20027;BME280;10174;42.688;23.344;2023-02-28T14:41:18;95744.72;;;11.99;67.63
20027;BME280;10174;42.688;23.344;2023-02-28T14:43:55;95690.41;;;11.70;67.74
20027;BME280;10174;42.688;23.344;2023-02-28T14:46:22;95764.97;;;12.12;68.22
20027;BME280;10174;42.688;23.344;2023-02-28T14:48:50;95750.75;;;11.79;69.08
20027;BME280;10174;42.688;23.344;2023-02-28T14:51:21;95783.56;;;12.14;68.19
20027;BME280;10174;42.688;23.344;2023-02-28T14:53:56;95762.63;;;11.83;68.53
20027;BME280;10174;42.688;23.344;2023-02-28T14:56:32;95769.38;;;11.86;69.52
20027;BME280;10174;42.688;23.344;2023-02-28T14:58:59;95757.69;;;11.70;69.38
20027;BME280;10174;42.688;23.344;2023-02-28T15:01:25;95633.91;;;10.84;69.62
20027;BME280;10174;42.688;23.344;2023-02-28T15:03:59;95789.41;;;11.63;70.26
20027;BME280;10174;42.688;23.344;2023-02-28T15:06:25;95756.13;;;11.41;71.22
20027;BME280;10174;42.688;23.344;2023-02-28T15:09:17;95784.25;;;11.56;71.33
20027;BME280;10174;42.688;23.344;2023-02-28T15:11:47;95768.19;;;11.34;71.80